Time;durP1;ratioP1;P1;durP2;ratioP2;P2;SDS_P1;SDS_P2;PMS_P1;PMS_P2;Temp;Humidity;BMP_temperature;BMP_pressure;BME280_temperature;BME280_humidity;BME280_pressure;Samples;Min_cycle;Max_cycle;Signal;HPM_P1;HPM_P2
2021/07/09 00:00:43;;;;;;;2.83;2.17;;;;;;;29.68;42.01;99782.50;4441513;32;34861;-87
2021/07/09 00:03:12;;;;;;;3.05;2.62;;;;;;;29.65;42.09;99781.13;4426930;32;33879;-87
2021/07/09 00:05:41;;;;;;;2.87;1.98;;;;;;;29.74;41.73;99776.78;4439714;32;33020;-89
2021/07/09 00:08:08;;;;;;;2.83;2.50;;;;;;;29.93;41.57;99774.38;4426582;32;34793;-87
2021/07/09 00:10:38;;;;;;;2.60;2.22;;;;;;;29.82;41.75;99778.97;4426128;32;33703;-89
2021/07/09 00:13:06;;;;;;;3.53;2.70;;;;;;;29.77;41.76;99768.00;4426527;32;32776;-89
2021/07/09 00:15:35;;;;;;;4.35;2.22;;;;;;;29.99;41.70;99768.62;4413639;32;32630;-87
2021/07/09 00:18:04;;;;;;;3.15;2.85;;;;;;;29.96;41.82;99769.16;4438795;32;34792;-87
2021/07/09 00:20:34;;;;;;;3.95;2.58;;;;;;;29.49;42.58;99771.19;4426828;32;33795;-88
2021/07/09 00:23:04;;;;;;;2.83;2.58;;;;;;;29.84;42.52;99765.84;4453211;32;32912;-83
2021/07/09 00:25:31;;;;;;;3.87;2.35;;;;;;;29.80;42.02;99772.94;4438682;32;33970;-88
2021/07/09 00:27:59;;;;;;;3.50;3.28;;;;;;;29.58;42.29;99764.09;4439111;32;34508;-87
2021/07/09 00:30:32;;;;;;;2.00;1.80;;;;;;;29.53;42.39;99768.72;4439994;32;34280;-88
2021/07/09 00:32:59;;;;;;;5.28;2.80;;;;;;;29.53;42.86;99769.53;4425709;32;33028;-87
2021/07/09 00:35:29;;;;;;;2.85;2.58;;;;;;;29.55;42.24;99761.06;4426252;32;34129;-86
2021/07/09 00:38:02;;;;;;;2.42;2.22;;;;;;;29.60;42.41;99756.41;4427786;32;36502;-87
2021/07/09 00:40:30;;;;;;;3.35;2.10;;;;;;;29.64;42.96;99756.72;4426051;32;33588;-86
2021/07/09 00:42:58;;;;;;;2.67;2.30;;;;;;;29.75;42.62;99751.00;4426530;32;33172;-88
2021/07/09 00:45:28;;;;;;;2.75;2.45;;;;;;;29.69;42.93;99748.50;4439512;32;34339;-89
2021/07/09 00:47:57;;;;;;;2.72;2.42;;;;;;;29.62;42.63;99745.19;4414220;32;34655;-88
2021/07/09 00:50:26;;;;;;;2.53;2.28;;;;;;;29.75;42.66;99745.53;4439230;32;34461;-87
2021/07/09 00:52:55;;;;;;;2.78;2.50;;;;;;;29.82;42.84;99745.25;4439315;32;33497;-88
2021/07/09 00:55:23;;;;;;;2.10;1.90;;;;;;;29.70;42.81;99750.16;4426064;32;32973;-87
2021/07/09 00:57:53;;;;;;;2.78;2.58;;;;;;;29.57;43.21;99754.22;4426489;32;34581;-87
2021/07/09 01:00:22;;;;;;;2.83;2.62;;;;;;;29.60;43.12;99752.84;4413711;32;32855;-87
2021/07/09 01:03:04;;;;;;;2.22;2.08;;;;;;;29.46;43.40;99754.41;4440481;32;33973;-87
2021/07/09 01:05:33;;;;;;;2.50;2.30;;;;;;;29.40;44.04;99752.72;4452932;32;34439;-87
2021/07/09 01:08:03;;;;;;;2.50;2.20;;;;;;;29.30;44.12;99752.66;4439023;32;36139;-85
2021/07/09 01:10:33;;;;;;;3.12;2.45;;;;;;;29.25;44.45;99747.19;4439221;32;34523;-87
2021/07/09 01:13:01;;;;;;;3.97;2.55;;;;;;;29.22;44.60;99744.94;4439088;32;33960;-89
2021/07/09 01:15:30;;;;;;;3.15;2.25;;;;;;;29.27;43.96;99737.56;4425852;32;34106;-90
2021/07/09 01:17:59;;;;;;;3.95;2.15;;;;;;;29.17;44.11;99748.50;4426475;32;35392;-87
2021/07/09 01:20:27;;;;;;;3.17;1.95;;;;;;;29.15;44.62;99742.44;4426009;32;33565;-87
2021/07/09 01:22:56;;;;;;;3.85;3.40;;;;;;;29.11;44.67;99740.50;4439068;32;33193;-89
2021/07/09 01:25:26;;;;;;;3.75;3.35;;;;;;;28.97;44.34;99733.87;4426147;32;32559;-88
2021/07/09 01:28:00;;;;;;;3.50;2.30;;;;;;;29.11;44.00;99733.13;4438935;32;34331;-86
2021/07/09 01:30:29;;;;;;;3.95;3.03;;;;;;;28.88;44.42;99733.47;4438823;32;34962;-89
2021/07/09 01:32:58;;;;;;;4.90;3.80;;;;;;;28.82;45.04;99740.03;4426843;32;32626;-90
2021/07/09 01:35:29;;;;;;;2.35;2.05;;;;;;;28.77;45.43;99745.47;4426229;32;32755;-87
2021/07/09 01:38:01;;;;;;;3.25;2.70;;;;;;;28.90;45.06;99739.50;4451910;32;35305;-86
2021/07/09 01:40:30;;;;;;;2.87;2.42;;;;;;;28.80;44.90;99739.44;4423351;32;34042;-88
2021/07/09 01:43:00;;;;;;;4.00;2.90;;;;;;;28.43;44.85;99735.88;4423401;32;33419;-86
2021/07/09 01:45:28;;;;;;;1.50;1.40;;;;;;;28.74;44.74;99743.25;4423349;32;33051;-88
2021/07/09 01:47:58;;;;;;;3.95;2.62;;;;;;;28.50;44.93;99743.88;4411122;32;33915;-87
2021/07/09 01:50:27;;;;;;;2.85;2.25;;;;;;;28.63;44.97;99736.06;4410965;32;35211;-86
2021/07/09 01:52:55;;;;;;;2.40;2.20;;;;;;;28.55;44.81;99744.75;4423353;32;33156;-85
2021/07/09 01:55:23;;;;;;;4.03;2.75;;;;;;;28.48;44.79;99738.66;4410453;32;33105;-86
2021/07/09 01:57:51;;;;;;;2.97;2.35;;;;;;;28.46;45.01;99748.22;4410789;32;34905;-88
2021/07/09 02:00:22;;;;;;;4.90;2.87;;;;;;;28.32;45.21;99746.97;4436602;32;34948;-86
2021/07/09 02:02:52;;;;;;;3.65;2.80;;;;;;;28.41;45.40;99743.53;4423345;32;33869;-88
2021/07/09 02:05:21;;;;;;;3.10;2.17;;;;;;;28.10;45.77;99748.94;4410291;32;34814;-86
2021/07/09 02:07:55;;;;;;;4.20;2.45;;;;;;;27.92;46.26;99735.59;4410682;32;35095;-83
2021/07/09 02:10:27;;;;;;;2.42;2.22;;;;;;;28.00;46.09;99737.88;4409787;32;34488;-83
2021/07/09 02:12:57;;;;;;;2.08;1.90;;;;;;;27.77;46.61;99730.81;4423067;32;33002;-81
2021/07/09 02:15:30;;;;;;;2.90;2.60;;;;;;;27.62;47.16;99746.19;4409690;32;32622;-86
2021/07/09 02:18:00;;;;;;;3.42;2.22;;;;;;;27.93;46.32;99735.34;4409996;32;35247;-86
2021/07/09 02:20:30;;;;;;;3.90;3.10;;;;;;;28.20;45.75;99732.59;4422885;32;33445;-85
2021/07/09 02:23:00;;;;;;;1.87;1.52;;;;;;;28.09;45.86;99737.19;4422556;32;31817;-86
2021/07/09 02:25:29;;;;;;;2.17;2.05;;;;;;;27.89;46.39;99731.50;4410084;32;32725;-87
2021/07/09 02:27:57;;;;;;;5.37;2.80;;;;;;;27.74;46.87;99733.22;4397340;32;35698;-87
2021/07/09 02:30:27;;;;;;;3.28;2.50;;;;;;;27.93;46.37;99732.63;4410098;32;33783;-86
2021/07/09 02:32:57;;;;;;;3.05;2.60;;;;;;;28.01;46.23;99736.81;4410077;32;33164;-85
2021/07/09 02:35:28;;;;;;;2.62;2.35;;;;;;;27.77;46.83;99741.75;4397397;32;34634;-87
2021/07/09 02:37:57;;;;;;;8.27;3.12;;;;;;;28.12;46.11;99738.56;4409493;32;35012;-87
2021/07/09 02:40:27;;;;;;;2.60;2.40;;;;;;;28.27;46.02;99744.19;4447466;32;34352;-89
2021/07/09 02:43:00;;;;;;;2.72;2.40;;;;;;;28.22;45.79;99738.69;4438243;32;33424;-88
2021/07/09 02:45:30;;;;;;;3.35;2.70;;;;;;;28.13;45.90;99738.31;4437364;32;33213;-84
2021/07/09 02:48:16;;;;;;;3.65;1.87;;;;;;;27.86;46.73;99739.38;4449748;32;34868;-84
2021/07/09 02:50:45;;;;;;;2.62;2.17;;;;;;;27.83;46.71;99742.63;4425265;32;32968;-82
2021/07/09 02:53:15;;;;;;;2.60;2.35;;;;;;;27.79;46.89;99739.59;4450453;32;33690;-87
2021/07/09 02:55:43;;;;;;;7.15;2.78;;;;;;;27.85;46.64;99724.88;4449956;32;33476;-88
2021/07/09 02:58:12;;;;;;;2.58;2.37;;;;;;;27.60;47.27;99727.31;4425018;32;34608;-80
2021/07/09 03:00:41;;;;;;;2.90;2.37;;;;;;;27.39;47.95;99730.06;4437797;32;33728;-80
2021/07/09 03:03:09;;;;;;;2.50;2.22;;;;;;;27.34;48.11;99727.25;4451730;32;33278;-86
2021/07/09 03:05:37;;;;;;;3.42;3.10;;;;;;;27.74;47.11;99728.59;4437628;32;34260;-86
2021/07/09 03:08:05;;;;;;;3.50;3.00;;;;;;;27.92;46.74;99733.72;4450273;32;35731;-88
2021/07/09 03:10:34;;;;;;;3.67;3.30;;;;;;;27.94;46.56;99723.34;4437580;32;34499;-88
2021/07/09 03:13:03;;;;;;;2.83;2.40;;;;;;;27.76;47.06;99729.16;4438062;32;33075;-86
2021/07/09 03:15:32;;;;;;;2.33;2.08;;;;;;;27.87;46.75;99730.09;4450204;32;31678;-86
2021/07/09 03:18:00;;;;;;;2.50;2.17;;;;;;;28.07;46.82;99731.16;4437857;32;34290;-87
2021/07/09 03:20:28;;;;;;;4.68;3.35;;;;;;;28.07;46.78;99731.16;4437616;32;34378;-88
2021/07/09 03:22:58;;;;;;;6.28;1.83;;;;;;;27.96;46.69;99734.84;4450446;32;34140;-87
2021/07/09 03:25:28;;;;;;;3.90;2.72;;;;;;;28.21;46.77;99739.75;4450508;32;33284;-88
2021/07/09 03:27:58;;;;;;;4.37;3.37;;;;;;;28.32;46.35;99733.28;4438191;32;34793;-86
2021/07/09 03:30:26;;;;;;;3.03;2.28;;;;;;;27.88;46.94;99739.94;4437014;32;33787;-87
2021/07/09 03:32:55;;;;;;;1.65;1.55;;;;;;;27.80;47.19;99740.41;4450310;32;33271;-84
2021/07/09 03:35:25;;;;;;;4.72;2.65;;;;;;;27.66;47.71;99734.47;4450390;32;33507;-81
2021/07/09 03:37:52;;;;;;;2.50;2.30;;;;;;;27.41;48.37;99733.34;4450117;32;34813;-87
2021/07/09 03:40:20;;;;;;;3.60;2.08;;;;;;;27.71;47.55;99726.34;4449883;32;34404;-86
2021/07/09 03:42:50;;;;;;;6.10;4.28;;;;;;;27.46;48.34;99725.19;4450128;32;33081;-87
2021/07/09 03:45:19;;;;;;;6.03;2.33;;;;;;;27.54;48.19;99730.22;4450152;32;33517;-84
2021/07/09 03:47:47;;;;;;;10.25;2.83;;;;;;;27.56;48.09;99731.63;4451256;32;34960;-86
2021/07/09 03:50:17;;;;;;;3.25;2.95;;;;;;;27.16;49.23;99740.38;4424882;32;34001;-84
2021/07/09 03:52:44;;;;;;;2.62;2.42;;;;;;;27.49;48.52;99744.66;4449665;32;35225;-82
2021/07/09 03:55:13;;;;;;;3.75;2.62;;;;;;;27.01;49.86;99740.97;4449869;32;33531;-86
2021/07/09 03:57:43;;;;;;;4.15;3.42;;;;;;;27.15;49.59;99738.75;4436913;32;34641;-81
2021/07/09 04:00:11;;;;;;;2.87;2.50;;;;;;;27.16;49.73;99738.47;4450769;32;33857;-81
2021/07/09 04:02:40;;;;;;;3.67;2.20;;;;;;;26.83;50.71;99741.25;4452155;32;33394;-86
2021/07/09 04:05:10;;;;;;;2.62;2.42;;;;;;;27.02;50.18;99745.34;4439903;32;33362;-78
2021/07/09 04:07:38;;;;;;;2.20;2.00;;;;;;;26.92;50.61;99747.09;4453444;32;35091;-80
2021/07/09 04:10:06;;;;;;;3.58;2.60;;;;;;;26.92;50.64;99749.81;4439566;32;34712;-83
2021/07/09 04:12:34;;;;;;;3.15;2.85;;;;;;;26.90;50.99;99754.72;4439476;32;32816;-79
2021/07/09 04:15:04;;;;;;;4.07;2.97;;;;;;;26.50;52.20;99754.06;4439444;32;34294;-83
2021/07/09 04:17:33;;;;;;;4.10;2.67;;;;;;;27.00;50.90;99752.13;4438991;32;33741;-79
2021/07/09 04:20:01;;;;;;;3.60;1.90;;;;;;;26.95;51.29;99752.03;4453145;32;34274;-83
2021/07/09 04:22:30;;;;;;;3.47;2.62;;;;;;;27.52;49.60;99751.53;4438855;32;32615;-87
2021/07/09 04:24:57;;;;;;;3.45;3.15;;;;;;;27.19;50.83;99746.19;4453177;32;34925;-79
2021/07/09 04:27:25;;;;;;;3.62;3.20;;;;;;;27.09;50.65;99740.50;4451868;32;34881;-79
2021/07/09 04:29:53;;;;;;;4.75;3.70;;;;;;;27.14;51.15;99729.72;4439412;32;34984;-80
2021/07/09 04:32:21;;;;;;;6.10;4.47;;;;;;;27.02;51.52;99728.13;4452032;32;33343;-82
2021/07/09 04:34:50;;;;;;;10.02;5.05;;;;;;;27.03;51.69;99728.69;4427094;32;32616;-80
2021/07/09 04:37:20;;;;;;;3.72;3.42;;;;;;;27.05;51.82;99733.91;4453270;32;34858;-84
2021/07/09 04:39:47;;;;;;;2.90;2.20;;;;;;;26.92;52.28;99736.19;4439072;32;34251;-84
2021/07/09 04:42:16;;;;;;;4.85;3.15;;;;;;;27.38;50.98;99742.06;4439312;32;32641;-81
2021/07/09 04:44:45;;;;;;;5.60;3.50;;;;;;;27.34;51.25;99741.75;4453070;32;33451;-82
2021/07/09 04:47:13;;;;;;;5.93;3.03;;;;;;;27.25;51.74;99732.34;4451984;32;36514;-81
2021/07/09 04:49:41;;;;;;;8.85;3.28;;;;;;;27.42;51.66;99719.44;4452141;32;34041;-80
2021/07/09 04:52:09;;;;;;;17.02;3.80;;;;;;;27.03;53.06;99727.88;4438898;32;31845;-80
2021/07/09 04:54:37;;;;;;;3.97;3.40;;;;;;;27.16;52.83;99735.72;4451789;32;33215;-83
2021/07/09 04:57:08;;;;;;;7.15;3.28;;;;;;;27.02;53.44;99744.50;4438852;32;34614;-84
2021/07/09 04:59:38;;;;;;;3.70;2.87;;;;;;;26.85;54.13;99749.16;4451998;32;33793;-78
2021/07/09 05:02:05;;;;;;;;;;;;;;;26.65;54.92;99751.59;4453679;32;34191;-79
2021/07/09 05:04:33;;;;;;;3.70;3.28;;;;;;;26.87;54.34;99766.97;4439281;32;34558;-86
2021/07/09 05:07:04;;;;;;;4.00;2.47;;;;;;;27.25;53.13;99767.00;4426236;32;34197;-84
2021/07/09 05:09:32;;;;;;;3.25;2.83;;;;;;;27.30;52.79;99765.16;4452822;32;36918;-77
2021/07/09 05:12:01;;;;;;;4.12;3.72;;;;;;;26.79;54.29;99774.75;4451683;32;33626;-80
2021/07/09 05:14:29;;;;;;;4.65;3.20;;;;;;;26.69;54.81;99777.31;4451699;32;34643;-79
2021/07/09 05:16:56;;;;;;;;;;;;;;;26.50;55.43;99770.41;4453330;32;34952;-79
2021/07/09 05:19:24;;;;;;;3.37;2.95;;;;;;;26.86;54.34;99773.50;4451790;32;34394;-81
2021/07/09 05:21:52;;;;;;;4.50;3.30;;;;;;;27.23;53.41;99766.44;4453061;32;32995;-82
2021/07/09 05:24:26;;;;;;;5.12;3.83;;;;;;;26.93;54.18;99760.50;4438405;32;32804;-80
2021/07/09 05:26:54;;;;;;;3.45;3.15;;;;;;;26.97;54.03;99753.44;4451492;32;35718;-84
2021/07/09 05:29:23;;;;;;;5.50;2.60;;;;;;;27.66;52.24;99766.47;4439074;32;34821;-85
2021/07/09 05:31:53;;;;;;;6.30;3.45;;;;;;;27.85;52.07;99751.41;4451668;32;32994;-77
2021/07/09 05:34:21;;;;;;;3.15;2.65;;;;;;;27.73;52.18;99737.84;4451455;32;33777;-79
2021/07/09 05:36:49;;;;;;;3.90;2.90;;;;;;;28.07;51.02;99738.50;4438659;32;34491;-80
2021/07/09 05:39:17;;;;;;;3.45;2.95;;;;;;;27.73;51.85;99762.44;4425479;32;34805;-83
2021/07/09 05:41:47;;;;;;;3.33;2.58;;;;;;;28.11;51.49;99764.25;4451413;32;35590;-82
2021/07/09 05:44:14;;;;;;;4.35;3.92;;;;;;;28.29;50.67;99769.38;4452613;32;33502;-80
2021/07/09 05:46:42;;;;;;;3.70;2.30;;;;;;;28.21;50.43;99767.13;4438756;32;34928;-79
2021/07/09 05:49:10;;;;;;;4.57;3.37;;;;;;;28.24;50.57;99759.19;4438844;32;34662;-82
2021/07/09 05:51:39;;;;;;;3.03;2.70;;;;;;;28.36;50.52;99756.34;4451379;32;33779;-86
2021/07/09 05:54:06;;;;;;;3.15;2.85;;;;;;;28.77;49.29;99758.34;4438949;32;33852;-83
2021/07/09 05:56:34;;;;;;;6.22;3.42;;;;;;;28.76;49.45;99760.25;4438870;32;33907;-79
2021/07/09 05:59:03;;;;;;;4.82;3.75;;;;;;;28.71;49.46;99767.59;4450543;32;33325;-83
2021/07/09 06:01:31;;;;;;;4.15;2.83;;;;;;;29.33;48.95;99772.16;4438272;32;33071;-83
2021/07/09 06:03:59;;;;;;;4.12;2.67;;;;;;;29.04;48.24;99775.53;4450905;32;34305;-84
2021/07/09 06:06:26;;;;;;;2.70;2.50;;;;;;;28.75;48.77;99772.28;4437648;32;33532;-82
2021/07/09 06:08:54;;;;;;;2.78;2.50;;;;;;;29.06;48.13;99770.63;4438106;32;33929;-87
2021/07/09 06:11:25;;;;;;;2.97;2.20;;;;;;;29.47;47.38;99767.00;4438490;32;32723;-77
2021/07/09 06:13:53;;;;;;;4.30;2.45;;;;;;;28.45;48.97;99782.16;4452184;32;34640;-82
2021/07/09 06:16:22;;;;;;;3.70;3.37;;;;;;;28.60;49.00;99780.37;4450881;32;34895;-80
2021/07/09 06:18:50;;;;;;;3.25;2.85;;;;;;;28.38;49.34;99779.63;4451036;32;33792;-88
2021/07/09 06:21:22;;;;;;;2.15;2.05;;;;;;;28.72;48.60;99782.94;4438653;32;34643;-83
2021/07/09 06:23:51;;;;;;;3.37;3.08;;;;;;;28.72;48.92;99792.00;4450062;32;34459;-79
2021/07/09 06:26:20;;;;;;;5.43;3.12;;;;;;;28.38;49.34;99785.09;4438120;32;34868;-80
2021/07/09 06:28:48;;;;;;;3.37;2.83;;;;;;;27.96;50.27;99775.84;4451083;32;34417;-87
2021/07/09 06:31:16;;;;;;;3.15;2.08;;;;;;;28.31;50.66;99768.03;4438542;32;33385;-84
2021/07/09 06:33:45;;;;;;;2.85;2.62;;;;;;;27.83;51.71;99750.81;4451174;32;34258;-80
2021/07/09 06:36:12;;;;;;;3.33;2.67;;;;;;;27.90;51.94;99745.97;4452580;32;35651;-85
2021/07/09 06:38:45;;;;;;;5.47;3.05;;;;;;;27.94;51.83;99747.13;4450810;32;34184;-84
2021/07/09 06:41:15;;;;;;;3.42;2.20;;;;;;;27.89;52.34;99745.19;4438568;32;32975;-80
2021/07/09 06:43:42;;;;;;;4.07;2.67;;;;;;;27.88;51.72;99749.00;4438246;32;32977;-81
2021/07/09 06:46:11;;;;;;;2.87;2.67;;;;;;;27.64;51.99;99739.38;4451064;32;35492;-78
2021/07/09 06:48:39;;;;;;;5.00;2.87;;;;;;;27.57;51.47;99746.12;4450822;32;35163;-81
2021/07/09 06:51:08;;;;;;;5.70;2.78;;;;;;;27.67;51.12;99743.50;4451450;32;33136;-86
2021/07/09 06:53:37;;;;;;;6.72;2.60;;;;;;;27.90;50.90;99741.34;4438536;32;34114;-80
2021/07/09 06:56:08;;;;;;;4.55;2.10;;;;;;;27.82;50.95;99736.34;4438413;32;35073;-80
2021/07/09 06:58:36;;;;;;;2.08;1.98;;;;;;;27.52;52.82;99746.91;4437556;32;34418;-84
2021/07/09 07:01:04;;;;;;;2.83;2.42;;;;;;;27.57;51.96;99754.31;4451021;32;32989;-88
2021/07/09 07:03:32;;;;;;;4.97;4.28;;;;;;;27.66;51.56;99742.69;4450798;32;33541;-81
2021/07/09 07:06:00;;;;;;;2.37;2.10;;;;;;;27.40;52.38;99743.44;4450684;32;34674;-85
2021/07/09 07:08:28;;;;;;;2.65;2.15;;;;;;;27.35;53.92;99761.69;4437980;32;34259;-81
2021/07/09 07:10:56;;;;;;;2.55;2.35;;;;;;;26.93;57.77;99781.50;4450334;32;32028;-79
2021/07/09 07:13:25;;;;;;;3.28;2.62;;;;;;;27.36;56.89;99772.37;4437724;32;34434;-80
2021/07/09 07:15:53;;;;;;;3.05;2.12;;;;;;;26.79;58.37;99785.69;4437833;32;34297;-84
2021/07/09 07:18:22;;;;;;;3.42;2.30;;;;;;;27.40;57.73;99776.22;4437629;32;33187;-87
2021/07/09 07:20:53;;;;;;;3.55;1.75;;;;;;;27.78;56.48;99786.31;4450751;32;33573;-88
2021/07/09 07:23:21;;;;;;;19.30;3.33;;;;;;;27.89;56.12;99801.75;4451594;32;33887;-82
2021/07/09 07:25:49;;;;;;;2.65;2.45;;;;;;;26.95;58.63;99809.38;4437797;32;35774;-80
2021/07/09 07:28:18;;;;;;;2.75;1.83;;;;;;;26.40;60.88;99816.63;4437829;32;34429;-84
2021/07/09 07:31:06;;;;;;;2.30;2.05;;;;;;;26.66;60.46;99805.94;4450648;32;33301;-82
2021/07/09 07:33:35;;;;;;;3.08;2.70;;;;;;;26.98;60.48;99812.44;4437898;32;34131;-84
2021/07/09 07:36:19;;;;;;;7.45;2.75;;;;;;;26.92;60.17;99812.63;4451898;32;35320;-80
2021/07/09 07:38:47;;;;;;;2.45;2.22;;;;;;;26.24;61.82;99801.84;4452252;32;34956;-83
2021/07/09 07:41:16;;;;;;;2.30;1.67;;;;;;;25.81;63.29;99801.53;4439821;32;32789;-81
2021/07/09 07:43:44;;;;;;;4.10;2.87;;;;;;;25.67;63.55;99808.31;4439338;32;33667;-80
2021/07/09 07:46:14;;;;;;;5.05;2.37;;;;;;;25.72;63.22;99797.53;4452317;32;35569;-83
2021/07/09 07:48:43;;;;;;;2.92;2.45;;;;;;;25.18;65.25;99781.63;4425962;32;33672;-85
2021/07/09 07:51:11;;;;;;;2.72;1.87;;;;;;;25.91;63.56;99807.22;4439237;32;32598;-83
2021/07/09 07:53:41;;;;;;;4.78;2.40;;;;;;;25.73;63.22;99812.81;4439843;32;34232;-82
2021/07/09 07:56:08;;;;;;;3.28;2.00;;;;;;;25.39;64.54;99802.81;4426470;32;34653;-83
2021/07/09 07:58:38;;;;;;;4.60;3.62;;;;;;;25.60;64.59;99790.47;4439122;32;33067;-81
2021/07/09 08:01:06;;;;;;;6.28;2.37;;;;;;;25.45;66.06;99781.97;4439914;32;33724;-83
2021/07/09 08:03:34;;;;;;;3.17;2.37;;;;;;;25.68;64.94;99771.03;4439656;32;33378;-83
2021/07/09 08:06:04;;;;;;;2.92;2.62;;;;;;;26.13;63.62;99777.41;4439475;32;35274;-83
2021/07/09 08:08:32;;;;;;;2.17;2.08;;;;;;;26.29;63.14;99782.03;4439678;32;35038;-83
2021/07/09 08:11:02;;;;;;;4.57;3.58;;;;;;;26.76;61.61;99788.88;4439533;32;32355;-83
2021/07/09 08:13:30;;;;;;;2.78;1.60;;;;;;;26.20;62.85;99789.78;4439244;32;34757;-85
2021/07/09 08:15:58;;;;;;;2.53;2.33;;;;;;;26.54;62.44;99798.88;4439540;32;34265;-86
2021/07/09 08:18:28;;;;;;;4.03;2.08;;;;;;;27.02;60.88;99802.69;4427012;32;34674;-85
2021/07/09 08:20:56;;;;;;;2.80;2.50;;;;;;;27.30;60.46;99808.88;4431347;32;32002;-83
2021/07/09 08:23:27;;;;;;;4.93;3.37;;;;;;;27.36;60.41;99827.00;4435062;32;34413;-86
2021/07/09 08:25:59;;;;;;;2.62;2.28;;;;;;;27.42;60.16;99828.75;4439564;32;35482;-85
2021/07/09 08:28:27;;;;;;;8.27;3.33;;;;;;;27.64;59.02;99831.47;4451921;32;34026;-82
2021/07/09 08:30:56;;;;;;;3.20;2.58;;;;;;;27.50;59.15;99825.56;4439418;32;32809;-87
2021/07/09 08:33:25;;;;;;;4.47;3.37;;;;;;;27.20;60.27;99825.13;4439589;32;34589;-84
2021/07/09 08:35:55;;;;;;;5.80;2.72;;;;;;;27.08;59.73;99835.28;4439727;32;35069;-79
2021/07/09 08:38:22;;;;;;;4.10;3.53;;;;;;;26.91;60.29;99843.75;4440739;32;33992;-79
2021/07/09 08:40:50;;;;;;;2.95;2.67;;;;;;;27.14;60.74;99855.34;4441887;32;33941;-77
2021/07/09 08:43:29;;;;;;;3.30;3.08;;;;;;;26.90;60.84;99856.53;4455937;32;33883;-82
2021/07/09 08:45:58;;;;;;;9.85;2.33;;;;;;;27.50;59.19;99857.53;4428712;32;35578;-77
2021/07/09 08:48:27;;;;;;;3.22;2.17;;;;;;;27.40;59.13;99854.66;4468618;32;34301;-78
2021/07/09 08:50:57;;;;;;;3.87;2.85;;;;;;;27.55;59.27;99863.91;4454506;32;33407;-76
2021/07/09 08:53:27;;;;;;;5.07;2.75;;;;;;;27.49;58.47;99853.97;4454617;32;34648;-80
2021/07/09 08:55:55;;;;;;;4.22;2.60;;;;;;;27.61;58.93;99851.97;4468479;32;34898;-80
2021/07/09 08:58:22;;;;;;;3.70;3.28;;;;;;;27.36;58.22;99854.34;4454410;32;34903;-77
2021/07/09 09:00:51;;;;;;;2.12;1.98;;;;;;;27.49;58.39;99853.16;4441756;32;32277;-82
2021/07/09 09:03:22;;;;;;;2.70;2.05;;;;;;;28.06;56.67;99846.28;4453806;32;32833;-85
2021/07/09 09:06:00;;;;;;;3.87;3.47;;;;;;;28.37;55.23;99831.88;4454979;32;34346;-79
2021/07/09 09:08:29;;;;;;;3.53;2.85;;;;;;;27.63;56.03;99829.81;4428848;32;32934;-79
2021/07/09 09:10:58;;;;;;;5.25;2.95;;;;;;;27.89;55.33;99834.59;4454553;32;34337;-83
2021/07/09 09:13:30;;;;;;;3.80;2.67;;;;;;;27.88;54.83;99835.66;4442101;32;34341;-80
2021/07/09 09:16:16;;;;;;;2.65;2.45;;;;;;;28.04;54.87;99832.84;4440891;32;35028;-78
2021/07/09 09:18:49;;;;;;;2.80;1.85;;;;;;;27.62;55.60;99826.28;4441888;32;34024;-85
2021/07/09 09:21:20;;;;;;;2.62;2.42;;;;;;;28.28;54.11;99817.81;4441677;32;34225;-82
2021/07/09 09:23:47;;;;;;;4.93;2.85;;;;;;;27.98;55.29;99814.75;4441729;32;34241;-80
2021/07/09 09:26:46;;;;;;;3.47;2.50;;;;;;;27.96;56.67;99805.94;4453774;32;34095;-74
2021/07/09 09:29:26;;;;;;;3.30;2.58;;;;;;;27.56;58.49;99812.81;4454341;32;34313;-80
2021/07/09 09:31:55;;;;;;;3.17;2.22;;;;;;;27.48;59.17;99810.50;4454486;32;33885;-76
2021/07/09 09:34:36;;;;;;;9.32;3.45;;;;;;;27.70;59.12;99794.94;4441640;32;33108;-78
2021/07/09 09:37:07;;;;;;;3.03;2.28;;;;;;;27.02;60.60;99781.66;4468628;32;35328;-75
2021/07/09 09:39:36;;;;;;;2.90;2.62;;;;;;;27.21;59.20;99793.19;4451504;32;34390;-82
2021/07/09 09:42:08;;;;;;;2.70;2.50;;;;;;;27.42;59.80;99811.50;4451462;32;34444;-79
2021/07/09 09:44:46;;;;;;;3.50;2.72;;;;;;;26.97;61.29;99793.59;4438549;32;415737;-78
2021/07/09 09:47:21;;;;;;;3.08;2.58;;;;;;;27.02;61.41;99777.28;4451353;32;34793;-79
2021/07/09 09:49:52;;;;;;;5.00;2.60;;;;;;;26.61;61.96;99772.28;4438741;32;34454;-78
2021/07/09 09:52:40;;;;;;;2.03;1.77;;;;;;;26.57;61.37;99758.28;4438870;32;31790;-79
2021/07/09 09:55:18;;;;;;;3.53;2.67;;;;;;;26.79;60.55;99739.25;4451562;32;34603;-76
2021/07/09 09:57:46;;;;;;;2.83;2.60;;;;;;;26.67;61.09;99744.81;4450329;32;34650;-80
2021/07/09 10:00:20;;;;;;;2.00;1.85;;;;;;;27.32;59.38;99743.06;4451211;32;33971;-80
2021/07/09 10:02:49;;;;;;;3.17;2.87;;;;;;;27.48;59.66;99747.66;4451452;32;31888;-81
2021/07/09 10:05:16;;;;;;;2.75;2.55;;;;;;;27.49;60.02;99761.03;4452596;32;33414;-79
2021/07/09 10:07:44;;;;;;;;;;;;;;;27.61;60.19;99772.69;4438731;32;35202;-82
2021/07/09 10:10:14;;;;;;;3.50;3.08;;;;;;;28.40;58.26;99777.44;4438433;32;33306;-83
2021/07/09 10:12:59;;;;;;;3.75;3.25;;;;;;;28.23;58.04;99782.16;4440274;32;32896;-79
2021/07/09 10:15:31;;;;;;;2.75;2.55;;;;;;;28.80;57.68;99798.88;4452505;32;34479;-78
2021/07/09 10:18:01;;;;;;;5.62;3.80;;;;;;;28.76;57.42;99784.06;4438590;32;35697;-78
2021/07/09 10:20:30;;;;;;;4.95;3.97;;;;;;;28.81;56.66;99782.19;4438422;32;34130;-82
2021/07/09 10:22:59;;;;;;;10.75;2.75;;;;;;;29.38;55.17;99777.69;4438609;32;33252;-80
2021/07/09 10:25:27;;;;;;;7.10;2.25;;;;;;;29.32;54.76;99769.66;4451306;32;33721;-82
2021/07/09 10:27:56;;;;;;;8.05;3.05;;;;;;;29.54;54.66;99762.97;4450962;32;35484;-79
2021/07/09 10:30:35;;;;;;;2.05;1.87;;;;;;;29.35;56.02;99764.47;4437636;32;33888;-79
2021/07/09 10:33:35;;;;;;;4.20;3.80;;;;;;;29.70;53.04;99769.38;4450964;32;33808;-82
2021/07/09 10:36:08;;;;;;;2.53;2.33;;;;;;;29.22;54.20;99762.22;4425138;32;32883;-77
2021/07/09 10:38:39;;;;;;;3.20;2.65;;;;;;;29.24;52.73;99776.47;4438384;32;36169;-78
2021/07/09 10:41:19;;;;;;;4.28;2.45;;;;;;;28.85;52.67;99777.00;4438754;32;35088;-82
2021/07/09 10:44:14;;;;;;;6.37;3.55;;;;;;;29.07;52.38;99784.03;4425989;32;32633;-81
2021/07/09 10:46:43;;;;;;;4.15;2.42;;;;;;;29.32;51.58;99769.66;4451144;32;33300;-78
2021/07/09 10:49:11;;;;;;;2.67;2.45;;;;;;;29.34;52.40;99783.97;4438051;32;35771;-84
2021/07/09 10:51:51;;;;;;;2.00;1.77;;;;;;;29.44;51.41;99779.34;4451053;32;35137;-83
2021/07/09 10:54:27;;;;;;;2.42;2.08;;;;;;;29.75;50.98;99783.06;4451118;32;33798;-81
2021/07/09 10:57:30;;;;;;;2.72;2.53;;;;;;;29.44;51.43;99792.22;4451106;32;34905;-83
2021/07/09 11:00:24;;;;;;;3.22;2.15;;;;;;;29.72;51.87;99800.06;4378883;32;35589;-81
2021/07/09 11:03:01;;;;;;;17.05;3.12;;;;;;;29.39;51.57;99800.41;4390980;32;34358;-89
2021/07/09 11:05:44;;;;;;;3.47;3.17;;;;;;;30.14;51.50;99798.03;4391229;32;33555;-79
2021/07/09 11:08:36;;;;;;;3.42;2.53;;;;;;;29.41;52.62;99799.06;4378023;32;34227;-80
2021/07/09 11:11:13;;;;;;;4.10;2.28;;;;;;;29.29;51.79;99795.72;4389514;32;35726;-79
2021/07/09 11:13:46;;;;;;;3.25;2.30;;;;;;;29.53;52.06;99782.44;4392911;32;34701;-82
2021/07/09 11:16:35;;;;;;;3.60;2.92;;;;;;;29.09;52.95;99779.16;4405577;32;33841;-83
2021/07/09 11:19:04;;;;;;;4.70;3.28;;;;;;;29.45;52.23;99783.72;4405192;32;34503;-85
2021/07/09 11:21:37;;;;;;;2.90;2.70;;;;;;;29.50;51.41;99777.47;4393484;32;35012;-82
2021/07/09 11:24:08;;;;;;;4.32;3.03;;;;;;;29.39;51.63;99773.84;4405319;32;34053;-84
2021/07/09 11:26:41;;;;;;;2.35;2.25;;;;;;;29.76;50.57;99766.38;4392685;32;33926;-84
2021/07/09 11:29:24;;;;;;;5.00;2.25;;;;;;;30.15;50.26;99753.03;4404910;32;34560;-84
2021/07/09 11:31:54;;;;;;;3.15;1.85;;;;;;;29.80;51.20;99755.69;4380185;32;33733;-79
2021/07/09 11:34:24;;;;;;;2.03;1.92;;;;;;;30.09;51.00;99756.87;4433736;32;33653;-81
2021/07/09 11:36:54;;;;;;;2.37;2.08;;;;;;;30.42;48.87;99746.22;4439789;32;34760;-80
2021/07/09 11:39:31;;;;;;;6.07;1.90;;;;;;;30.33;49.01;99753.34;4439776;32;34126;-81
2021/07/09 11:42:11;;;;;;;2.55;2.35;;;;;;;30.29;49.18;99768.69;4452296;32;35734;-85
2021/07/09 11:44:49;;;;;;;3.70;1.92;;;;;;;30.95;49.13;99765.72;4452331;32;34514;-79
2021/07/09 11:47:21;;;;;;;2.92;1.80;;;;;;;30.73;47.65;99767.97;4453677;32;33934;-80
2021/07/09 11:49:52;;;;;;;2.50;2.08;;;;;;;30.10;49.51;99764.03;4452362;32;33837;-82